sensor_id;sensor_type;location;lat;lon;timestamp;P1;durP1;ratioP1;P2;durP2;ratioP2
53644;SDS011;39547;45.554;12.068;2024-02-14T00:07:10;83.95;;;51.58;;
53644;SDS011;39547;45.554;12.068;2024-02-14T00:13:12;81.68;;;53.25;;
53644;SDS011;39547;45.554;12.068;2024-02-14T00:19:13;77.65;;;48.88;;
53644;SDS011;39547;45.554;12.068;2024-02-14T00:25:15;75.00;;;48.90;;
53644;SDS011;39547;45.554;12.068;2024-02-14T00:31:17;79.07;;;48.88;;
53644;SDS011;39547;45.554;12.068;2024-02-14T00:37:19;73.35;;;47.75;;
53644;SDS011;39547;45.554;12.068;2024-02-14T00:43:21;75.50;;;47.40;;
53644;SDS011;39547;45.554;12.068;2024-02-14T00:49:22;73.05;;;46.40;;
53644;SDS011;39547;45.554;12.068;2024-02-14T00:55:23;75.60;;;47.35;;
53644;SDS011;39547;45.554;12.068;2024-02-14T01:01:25;79.22;;;49.22;;
53644;SDS011;39547;45.554;12.068;2024-02-14T01:07:26;66.90;;;44.10;;
53644;SDS011;39547;45.554;12.068;2024-02-14T01:13:28;68.80;;;43.17;;
53644;SDS011;39547;45.554;12.068;2024-02-14T01:19:30;63.95;;;41.75;;
53644;SDS011;39547;45.554;12.068;2024-02-14T01:25:32;60.17;;;39.10;;
53644;SDS011;39547;45.554;12.068;2024-02-14T01:31:33;56.47;;;37.85;;
53644;SDS011;39547;45.554;12.068;2024-02-14T01:37:35;55.88;;;37.05;;
53644;SDS011;39547;45.554;12.068;2024-02-14T01:43:36;52.97;;;35.13;;
53644;SDS011;39547;45.554;12.068;2024-02-14T01:49:38;48.88;;;33.00;;
53644;SDS011;39547;45.554;12.068;2024-02-14T02:01:45;44.58;;;30.13;;
53644;SDS011;39547;45.554;12.068;2024-02-14T02:07:47;43.13;;;29.08;;
53644;SDS011;39547;45.554;12.068;2024-02-14T02:13:49;43.95;;;28.98;;
53644;SDS011;39547;45.554;12.068;2024-02-14T02:19:53;41.38;;;26.70;;
53644;SDS011;39547;45.554;12.068;2024-02-14T02:25:55;39.22;;;26.08;;
53644;SDS011;39547;45.554;12.068;2024-02-14T02:31:56;37.92;;;24.23;;
53644;SDS011;39547;45.554;12.068;2024-02-14T02:37:58;36.15;;;23.15;;
53644;SDS011;39547;45.554;12.068;2024-02-14T02:44:00;33.42;;;22.48;;
53644;SDS011;39547;45.554;12.068;2024-02-14T02:50:03;31.30;;;21.00;;
53644;SDS011;39547;45.554;12.068;2024-02-14T02:56:05;32.15;;;19.45;;
53644;SDS011;39547;45.554;12.068;2024-02-14T03:02:07;30.20;;;18.35;;
53644;SDS011;39547;45.554;12.068;2024-02-14T03:08:09;27.23;;;16.60;;
53644;SDS011;39547;45.554;12.068;2024-02-14T03:14:16;27.60;;;17.33;;
53644;SDS011;39547;45.554;12.068;2024-02-14T03:20:17;27.25;;;16.60;;
53644;SDS011;39547;45.554;12.068;2024-02-14T03:26:20;25.48;;;15.82;;
53644;SDS011;39547;45.554;12.068;2024-02-14T03:32:21;27.55;;;15.73;;
53644;SDS011;39547;45.554;12.068;2024-02-14T03:38:25;26.60;;;16.20;;
53644;SDS011;39547;45.554;12.068;2024-02-14T03:44:30;25.52;;;15.38;;
53644;SDS011;39547;45.554;12.068;2024-02-14T03:50:32;25.02;;;14.68;;
53644;SDS011;39547;45.554;12.068;2024-02-14T03:56:34;23.60;;;14.05;;
53644;SDS011;39547;45.554;12.068;2024-02-14T04:02:36;24.42;;;14.98;;
53644;SDS011;39547;45.554;12.068;2024-02-14T04:08:37;24.17;;;14.10;;
53644;SDS011;39547;45.554;12.068;2024-02-14T04:14:38;24.70;;;15.75;;
53644;SDS011;39547;45.554;12.068;2024-02-14T04:20:40;24.73;;;14.95;;
53644;SDS011;39547;45.554;12.068;2024-02-14T04:26:42;24.80;;;14.40;;
53644;SDS011;39547;45.554;12.068;2024-02-14T04:32:43;25.70;;;15.35;;
53644;SDS011;39547;45.554;12.068;2024-02-14T04:38:46;25.58;;;15.77;;
53644;SDS011;39547;45.554;12.068;2024-02-14T04:44:48;25.17;;;15.18;;
53644;SDS011;39547;45.554;12.068;2024-02-14T04:50:49;23.45;;;13.68;;
53644;SDS011;39547;45.554;12.068;2024-02-14T04:56:51;23.63;;;13.93;;
53644;SDS011;39547;45.554;12.068;2024-02-14T05:02:52;23.05;;;13.50;;
53644;SDS011;39547;45.554;12.068;2024-02-14T05:08:54;24.95;;;13.73;;
53644;SDS011;39547;45.554;12.068;2024-02-14T05:14:55;22.63;;;13.05;;
53644;SDS011;39547;45.554;12.068;2024-02-14T05:20:57;21.92;;;13.10;;
53644;SDS011;39547;45.554;12.068;2024-02-14T05:27:00;21.90;;;12.77;;
53644;SDS011;39547;45.554;12.068;2024-02-14T05:33:01;22.52;;;12.55;;
53644;SDS011;39547;45.554;12.068;2024-02-14T05:39:04;22.23;;;12.35;;
53644;SDS011;39547;45.554;12.068;2024-02-14T05:45:08;21.45;;;12.63;;
53644;SDS011;39547;45.554;12.068;2024-02-14T05:51:10;22.13;;;12.60;;
53644;SDS011;39547;45.554;12.068;2024-02-14T05:57:12;21.92;;;12.57;;
53644;SDS011;39547;45.554;12.068;2024-02-14T06:03:13;23.20;;;13.80;;
53644;SDS011;39547;45.554;12.068;2024-02-14T06:09:15;24.55;;;14.25;;
53644;SDS011;39547;45.554;12.068;2024-02-14T06:15:16;22.55;;;13.43;;
53644;SDS011;39547;45.554;12.068;2024-02-14T06:21:18;25.85;;;14.13;;
53644;SDS011;39547;45.554;12.068;2024-02-14T06:27:20;24.20;;;14.25;;
53644;SDS011;39547;45.554;12.068;2024-02-14T06:33:21;25.38;;;14.68;;
53644;SDS011;39547;45.554;12.068;2024-02-14T06:39:23;23.17;;;13.93;;
53644;SDS011;39547;45.554;12.068;2024-02-14T06:45:25;26.63;;;15.20;;
53644;SDS011;39547;45.554;12.068;2024-02-14T06:51:28;24.17;;;14.25;;
53644;SDS011;39547;45.554;12.068;2024-02-14T06:57:31;22.15;;;13.45;;
53644;SDS011;39547;45.554;12.068;2024-02-14T07:03:32;24.33;;;13.80;;
53644;SDS011;39547;45.554;12.068;2024-02-14T07:09:34;25.30;;;15.52;;
53644;SDS011;39547;45.554;12.068;2024-02-14T07:15:41;25.88;;;15.43;;
53644;SDS011;39547;45.554;12.068;2024-02-14T07:21:43;24.97;;;14.80;;
53644;SDS011;39547;45.554;12.068;2024-02-14T07:27:45;25.58;;;15.20;;
53644;SDS011;39547;45.554;12.068;2024-02-14T07:33:49;26.00;;;16.58;;
53644;SDS011;39547;45.554;12.068;2024-02-14T07:39:54;28.00;;;16.50;;
53644;SDS011;39547;45.554;12.068;2024-02-14T07:45:55;24.38;;;15.30;;
53644;SDS011;39547;45.554;12.068;2024-02-14T07:51:57;28.42;;;17.58;;
53644;SDS011;39547;45.554;12.068;2024-02-14T07:57:58;27.05;;;17.70;;
53644;SDS011;39547;45.554;12.068;2024-02-14T08:04:00;24.95;;;14.80;;
53644;SDS011;39547;45.554;12.068;2024-02-14T08:10:02;23.20;;;12.07;;
53644;SDS011;39547;45.554;12.068;2024-02-14T08:16:06;21.42;;;11.30;;
53644;SDS011;39547;45.554;12.068;2024-02-14T08:22:08;19.08;;;9.40;;
53644;SDS011;39547;45.554;12.068;2024-02-14T08:28:10;15.60;;;7.32;;
53644;SDS011;39547;45.554;12.068;2024-02-14T08:34:11;16.15;;;7.70;;
53644;SDS011;39547;45.554;12.068;2024-02-14T08:40:14;15.77;;;6.97;;
53644;SDS011;39547;45.554;12.068;2024-02-14T08:46:16;16.60;;;6.30;;
53644;SDS011;39547;45.554;12.068;2024-02-14T08:52:19;14.65;;;6.32;;
53644;SDS011;39547;45.554;12.068;2024-02-14T08:58:20;16.08;;;6.65;;
53644;SDS011;39547;45.554;12.068;2024-02-14T09:10:28;13.50;;;5.45;;
53644;SDS011;39547;45.554;12.068;2024-02-14T09:16:30;14.07;;;5.22;;
53644;SDS011;39547;45.554;12.068;2024-02-14T09:22:32;12.73;;;4.88;;
53644;SDS011;39547;45.554;12.068;2024-02-14T09:28:35;13.15;;;4.97;;
53644;SDS011;39547;45.554;12.068;2024-02-14T09:34:37;12.90;;;5.10;;
53644;SDS011;39547;45.554;12.068;2024-02-14T09:40:40;13.27;;;5.20;;
53644;SDS011;39547;45.554;12.068;2024-02-14T09:46:42;13.35;;;5.07;;
53644;SDS011;39547;45.554;12.068;2024-02-14T09:52:44;14.73;;;5.38;;
53644;SDS011;39547;45.554;12.068;2024-02-14T09:58:49;15.30;;;6.50;;
53644;SDS011;39547;45.554;12.068;2024-02-14T10:04:56;14.60;;;6.00;;
53644;SDS011;39547;45.554;12.068;2024-02-14T10:10:59;14.52;;;6.03;;
53644;SDS011;39547;45.554;12.068;2024-02-14T10:17:01;14.55;;;5.90;;
53644;SDS011;39547;45.554;12.068;2024-02-14T10:23:03;14.90;;;5.78;;
53644;SDS011;39547;45.554;12.068;2024-02-14T10:29:06;14.25;;;5.80;;
53644;SDS011;39547;45.554;12.068;2024-02-14T10:35:09;13.77;;;5.78;;
53644;SDS011;39547;45.554;12.068;2024-02-14T10:41:12;13.98;;;5.47;;
53644;SDS011;39547;45.554;12.068;2024-02-14T10:47:14;14.38;;;5.78;;
53644;SDS011;39547;45.554;12.068;2024-02-14T10:53:19;15.48;;;6.45;;
53644;SDS011;39547;45.554;12.068;2024-02-14T10:59:21;15.40;;;6.80;;
53644;SDS011;39547;45.554;12.068;2024-02-14T11:05:25;15.97;;;7.00;;
53644;SDS011;39547;45.554;12.068;2024-02-14T11:11:29;15.35;;;6.85;;
53644;SDS011;39547;45.554;12.068;2024-02-14T11:17:33;16.15;;;7.57;;
53644;SDS011;39547;45.554;12.068;2024-02-14T11:23:35;16.00;;;7.35;;
53644;SDS011;39547;45.554;12.068;2024-02-14T11:29:38;17.33;;;8.05;;
53644;SDS011;39547;45.554;12.068;2024-02-14T11:35:42;18.92;;;8.82;;
53644;SDS011;39547;45.554;12.068;2024-02-14T11:41:43;20.20;;;9.27;;
53644;SDS011;39547;45.554;12.068;2024-02-14T11:47:45;20.85;;;9.63;;
53644;SDS011;39547;45.554;12.068;2024-02-14T11:53:47;19.30;;;9.45;;
53644;SDS011;39547;45.554;12.068;2024-02-14T11:59:49;18.63;;;9.40;;
53644;SDS011;39547;45.554;12.068;2024-02-14T12:05:53;18.42;;;9.20;;
53644;SDS011;39547;45.554;12.068;2024-02-14T12:11:56;20.42;;;9.52;;
53644;SDS011;39547;45.554;12.068;2024-02-14T12:17:58;19.55;;;9.90;;
53644;SDS011;39547;45.554;12.068;2024-02-14T12:23:59;19.23;;;9.60;;
53644;SDS011;39547;45.554;12.068;2024-02-14T12:30:04;21.17;;;10.27;;
53644;SDS011;39547;45.554;12.068;2024-02-14T12:36:10;21.65;;;10.40;;
53644;SDS011;39547;45.554;12.068;2024-02-14T12:42:12;20.52;;;10.48;;
53644;SDS011;39547;45.554;12.068;2024-02-14T12:48:21;21.55;;;11.18;;
53644;SDS011;39547;45.554;12.068;2024-02-14T12:54:27;23.52;;;12.27;;
53644;SDS011;39547;45.554;12.068;2024-02-14T13:00:28;22.23;;;11.27;;
53644;SDS011;39547;45.554;12.068;2024-02-14T13:06:32;21.20;;;11.05;;
53644;SDS011;39547;45.554;12.068;2024-02-14T13:12:34;19.77;;;10.10;;
53644;SDS011;39547;45.554;12.068;2024-02-14T13:18:35;21.45;;;11.20;;
53644;SDS011;39547;45.554;12.068;2024-02-14T13:24:37;20.63;;;10.52;;
53644;SDS011;39547;45.554;12.068;2024-02-14T13:30:39;20.60;;;10.55;;
53644;SDS011;39547;45.554;12.068;2024-02-14T13:36:41;21.77;;;10.40;;
53644;SDS011;39547;45.554;12.068;2024-02-14T13:42:42;21.80;;;10.55;;
53644;SDS011;39547;45.554;12.068;2024-02-14T13:48:44;19.00;;;9.60;;
53644;SDS011;39547;45.554;12.068;2024-02-14T13:54:46;18.58;;;9.48;;
53644;SDS011;39547;45.554;12.068;2024-02-14T14:00:47;19.63;;;10.10;;
53644;SDS011;39547;45.554;12.068;2024-02-14T14:06:49;21.23;;;10.88;;
53644;SDS011;39547;45.554;12.068;2024-02-14T14:12:51;20.73;;;10.75;;
53644;SDS011;39547;45.554;12.068;2024-02-14T14:18:52;20.90;;;10.10;;
53644;SDS011;39547;45.554;12.068;2024-02-14T14:24:54;20.65;;;10.63;;
53644;SDS011;39547;45.554;12.068;2024-02-14T14:30:56;20.83;;;11.00;;
53644;SDS011;39547;45.554;12.068;2024-02-14T14:36:58;19.00;;;9.80;;
53644;SDS011;39547;45.554;12.068;2024-02-14T14:42:59;20.30;;;9.75;;
53644;SDS011;39547;45.554;12.068;2024-02-14T14:49:01;17.95;;;9.07;;
53644;SDS011;39547;45.554;12.068;2024-02-14T14:55:03;18.00;;;8.82;;
53644;SDS011;39547;45.554;12.068;2024-02-14T15:01:06;19.05;;;8.85;;
53644;SDS011;39547;45.554;12.068;2024-02-14T15:07:07;19.83;;;9.50;;
53644;SDS011;39547;45.554;12.068;2024-02-14T15:13:10;19.13;;;9.60;;
53644;SDS011;39547;45.554;12.068;2024-02-14T15:19:14;19.08;;;9.55;;
53644;SDS011;39547;45.554;12.068;2024-02-14T15:25:17;20.00;;;10.27;;
53644;SDS011;39547;45.554;12.068;2024-02-14T15:31:18;19.48;;;9.75;;
53644;SDS011;39547;45.554;12.068;2024-02-14T15:37:39;19.00;;;9.32;;
53644;SDS011;39547;45.554;12.068;2024-02-14T15:43:43;18.63;;;9.68;;
53644;SDS011;39547;45.554;12.068;2024-02-14T15:49:47;19.13;;;9.80;;
53644;SDS011;39547;45.554;12.068;2024-02-14T15:55:49;19.38;;;9.43;;
53644;SDS011;39547;45.554;12.068;2024-02-14T16:01:52;20.08;;;9.82;;
53644;SDS011;39547;45.554;12.068;2024-02-14T16:07:55;17.55;;;8.02;;
53644;SDS011;39547;45.554;12.068;2024-02-14T16:13:57;20.05;;;10.00;;
53644;SDS011;39547;45.554;12.068;2024-02-14T16:19:59;20.08;;;9.45;;
53644;SDS011;39547;45.554;12.068;2024-02-14T16:26:01;19.67;;;10.07;;
53644;SDS011;39547;45.554;12.068;2024-02-14T16:32:05;21.33;;;10.32;;
53644;SDS011;39547;45.554;12.068;2024-02-14T16:38:07;20.08;;;10.20;;
53644;SDS011;39547;45.554;12.068;2024-02-14T16:44:09;21.90;;;11.18;;
53644;SDS011;39547;45.554;12.068;2024-02-14T16:50:12;21.40;;;10.75;;
53644;SDS011;39547;45.554;12.068;2024-02-14T16:56:13;21.58;;;11.02;;
53644;SDS011;39547;45.554;12.068;2024-02-14T17:02:15;22.60;;;11.40;;
53644;SDS011;39547;45.554;12.068;2024-02-14T17:08:16;23.15;;;11.93;;
53644;SDS011;39547;45.554;12.068;2024-02-14T17:14:18;28.23;;;14.55;;
53644;SDS011;39547;45.554;12.068;2024-02-14T17:20:20;29.38;;;15.70;;
53644;SDS011;39547;45.554;12.068;2024-02-14T17:26:22;39.05;;;21.63;;
53644;SDS011;39547;45.554;12.068;2024-02-14T17:32:23;40.60;;;22.85;;
53644;SDS011;39547;45.554;12.068;2024-02-14T17:38:26;46.22;;;24.88;;
53644;SDS011;39547;45.554;12.068;2024-02-14T17:44:28;52.15;;;27.88;;
53644;SDS011;39547;45.554;12.068;2024-02-14T17:50:31;52.75;;;29.60;;
53644;SDS011;39547;45.554;12.068;2024-02-14T17:56:33;61.28;;;32.65;;
53644;SDS011;39547;45.554;12.068;2024-02-14T18:02:34;62.13;;;34.22;;
53644;SDS011;39547;45.554;12.068;2024-02-14T18:08:37;68.82;;;34.72;;
53644;SDS011;39547;45.554;12.068;2024-02-14T18:14:38;68.70;;;35.88;;
53644;SDS011;39547;45.554;12.068;2024-02-14T18:20:40;72.63;;;38.17;;
53644;SDS011;39547;45.554;12.068;2024-02-14T18:26:41;80.90;;;40.40;;
53644;SDS011;39547;45.554;12.068;2024-02-14T18:32:43;84.05;;;41.13;;
53644;SDS011;39547;45.554;12.068;2024-02-14T18:38:45;80.00;;;41.05;;
53644;SDS011;39547;45.554;12.068;2024-02-14T18:44:46;84.82;;;41.90;;
53644;SDS011;39547;45.554;12.068;2024-02-14T18:50:48;84.88;;;42.40;;
53644;SDS011;39547;45.554;12.068;2024-02-14T18:56:49;85.35;;;42.40;;
53644;SDS011;39547;45.554;12.068;2024-02-14T19:02:52;84.85;;;42.13;;
53644;SDS011;39547;45.554;12.068;2024-02-14T19:08:54;94.22;;;43.88;;
53644;SDS011;39547;45.554;12.068;2024-02-14T19:14:56;84.22;;;42.70;;
53644;SDS011;39547;45.554;12.068;2024-02-14T19:20:58;94.70;;;46.00;;
53644;SDS011;39547;45.554;12.068;2024-02-14T19:27:01;95.75;;;46.75;;
53644;SDS011;39547;45.554;12.068;2024-02-14T19:33:03;90.28;;;44.10;;
53644;SDS011;39547;45.554;12.068;2024-02-14T19:39:04;91.65;;;45.25;;
53644;SDS011;39547;45.554;12.068;2024-02-14T19:45:06;93.90;;;44.28;;
53644;SDS011;39547;45.554;12.068;2024-02-14T19:51:09;90.78;;;44.33;;
53644;SDS011;39547;45.554;12.068;2024-02-14T19:57:11;93.47;;;46.30;;
53644;SDS011;39547;45.554;12.068;2024-02-14T20:03:14;91.80;;;44.43;;
53644;SDS011;39547;45.554;12.068;2024-02-14T20:09:17;89.45;;;44.88;;
53644;SDS011;39547;45.554;12.068;2024-02-14T20:15:18;86.03;;;43.75;;
53644;SDS011;39547;45.554;12.068;2024-02-14T20:21:20;88.00;;;44.85;;
53644;SDS011;39547;45.554;12.068;2024-02-14T20:27:21;90.70;;;45.03;;
53644;SDS011;39547;45.554;12.068;2024-02-14T20:33:24;97.07;;;47.75;;
53644;SDS011;39547;45.554;12.068;2024-02-14T20:39:26;101.78;;;50.13;;
53644;SDS011;39547;45.554;12.068;2024-02-14T20:45:27;93.25;;;46.75;;
53644;SDS011;39547;45.554;12.068;2024-02-14T20:51:29;96.13;;;48.45;;
53644;SDS011;39547;45.554;12.068;2024-02-14T20:57:33;103.43;;;50.80;;
53644;SDS011;39547;45.554;12.068;2024-02-14T21:03:35;102.57;;;51.53;;
53644;SDS011;39547;45.554;12.068;2024-02-14T21:09:37;106.50;;;52.22;;
53644;SDS011;39547;45.554;12.068;2024-02-14T21:15:38;121.50;;;51.90;;
53644;SDS011;39547;45.554;12.068;2024-02-14T21:21:42;116.83;;;53.90;;
53644;SDS011;39547;45.554;12.068;2024-02-14T21:27:44;142.32;;;57.83;;
53644;SDS011;39547;45.554;12.068;2024-02-14T21:33:46;131.00;;;54.38;;
53644;SDS011;39547;45.554;12.068;2024-02-14T21:39:47;221.60;;;54.13;;
53644;SDS011;39547;45.554;12.068;2024-02-14T21:45:49;114.55;;;51.97;;
53644;SDS011;39547;45.554;12.068;2024-02-14T21:51:51;123.25;;;50.35;;
53644;SDS011;39547;45.554;12.068;2024-02-14T21:57:53;91.78;;;51.17;;
53644;SDS011;39547;45.554;12.068;2024-02-14T22:03:54;96.70;;;50.55;;
53644;SDS011;39547;45.554;12.068;2024-02-14T22:09:56;97.40;;;49.55;;
53644;SDS011;39547;45.554;12.068;2024-02-14T22:15:57;119.65;;;56.50;;
53644;SDS011;39547;45.554;12.068;2024-02-14T22:21:59;92.45;;;50.83;;
53644;SDS011;39547;45.554;12.068;2024-02-14T22:28:01;87.30;;;48.92;;
53644;SDS011;39547;45.554;12.068;2024-02-14T22:34:04;90.13;;;50.00;;
53644;SDS011;39547;45.554;12.068;2024-02-14T22:40:06;84.00;;;47.25;;
53644;SDS011;39547;45.554;12.068;2024-02-14T22:46:10;76.47;;;46.83;;
53644;SDS011;39547;45.554;12.068;2024-02-14T22:52:12;88.37;;;45.07;;
53644;SDS011;39547;45.554;12.068;2024-02-14T22:58:14;85.50;;;43.97;;
53644;SDS011;39547;45.554;12.068;2024-02-14T23:04:16;91.07;;;44.35;;
53644;SDS011;39547;45.554;12.068;2024-02-14T23:10:18;65.97;;;43.15;;
53644;SDS011;39547;45.554;12.068;2024-02-14T23:16:21;85.57;;;43.38;;
53644;SDS011;39547;45.554;12.068;2024-02-14T23:22:23;91.07;;;43.55;;
53644;SDS011;39547;45.554;12.068;2024-02-14T23:28:24;141.20;;;46.78;;
53644;SDS011;39547;45.554;12.068;2024-02-14T23:34:25;122.70;;;46.13;;
53644;SDS011;39547;45.554;12.068;2024-02-14T23:40:27;72.75;;;45.08;;
53644;SDS011;39547;45.554;12.068;2024-02-14T23:46:28;90.75;;;47.47;;
53644;SDS011;39547;45.554;12.068;2024-02-14T23:52:31;73.50;;;44.42;;
53644;SDS011;39547;45.554;12.068;2024-02-14T23:58:34;83.20;;;45.20;;
